Sweet Home, Texas
Current Conditions -  °F | °C
As of 7:07 AM on Sunday 21 Dec 2014 (Local Time) from KVCT Reporting Station
Overcast Overcast  
Wind Chill: 53°   Ceiling: 1400
Heat Index: 53°   Visibility: 8mi
Dew Point: 51°   Wind: 7mph
Humidity: 93%   Direction: 40°NE
Pressure: 30.11"   Gusts: NA
Location:  29.35°N, 97.07°W
Report Text: KVCT 211307Z 04006KT 8SM OVC014 12/11 A3011 RMK AO2 T01170106 $
Loading
Personal Weather Stations






























Interactive Weather Map New forecast layout! Learn more

10-Day Weather Forecast

Advertisements
Track Severe Weather on mobile